tititudorancea.com
Station Historical Data
Daily Summary for November 21, 2018 Units:  Metric    English   Both
« Previous Day
Next Day »
Daily Weekly Monthly Yearly Custom
  High: Low: Average:
Temperature: -17.8 °C 6.6 °C 11.2 °C
Dew Point: -17.8 °C 2.9 °C 6.8 °C
Humidity: Humidity % 38 % 77 %
Wind Speed: 0 km/h 0 km/h 11.7 km/h
Wind Gust: 0 km/h - -
Wind:- - SW
Pressure: 0 hPa 994.1 hPa -
Precipitation: 1.52 mm    
Historical Graphs
 
 
Ararat weather Find more about Weather in Ararat, AU


 



 


Tabular Data for November 21, 2018
Time Temperature Dew Point Pressure Wind Wind Speed Wind Gust Humidity Rainfall Rate (Hourly)
-17.8 °C -17.8 °C 0 hPa Calm     Humidity % 0 mm
00:04 11.4 °C 10.2 °C 1000.9 hPa SW 18.5 km/h 19.3 km/h 92 % 0 mm
00:09 11.4 °C 10.2 °C 1001.2 hPa SW 24.1 km/h 15.3 km/h 92 % 0 mm
00:14 11.4 °C 10.2 °C 1001.2 hPa SW 11.1 km/h 6.4 km/h 92 % 0 mm
00:19 11.4 °C 9.9 °C 1000.9 hPa SW 18.5 km/h 13.5 km/h 91 % 0 mm
00:24 11.3 °C 9.9 °C 1000.9 hPa SW 16.7 km/h 8.2 km/h 91 % 0 mm
00:29 11.2 °C 9.8 °C 1000.6 hPa SW 16.7 km/h 10 km/h 91 % 0 mm
00:34 11.1 °C 9.7 °C 1000.9 hPa SSW 16.7 km/h 9.2 km/h 91 % 0 mm
00:39 11.1 °C 9.7 °C 1000.6 hPa SSW 13 km/h 7.1 km/h 91 % 0 mm
00:44 11 °C 9.6 °C 1000.9 hPa SSW 5.6 km/h 2.9 km/h 91 % 0 mm
00:49 10.9 °C 9.4 °C 1000.6 hPa SSW 4.8 km/h 2.1 km/h 90 % 0 mm
00:54 10.9 °C 9.3 °C 1000.6 hPa SSW 7.4 km/h 5 km/h 90 % 0 mm
00:59 10.8 °C 9.3 °C 1000.9 hPa Calm     90 % 0 mm
01:04 10.8 °C 9.2 °C 1000.9 hPa Calm     90 % 0 mm
01:09 10.7 °C 9.2 °C 1000.9 hPa Calm     90 % 0 mm
01:14 10.6 °C 9.1 °C 1000.9 hPa SSW 7.4 km/h 2.1 km/h 90 % 0 mm
01:19 10.4 °C 8.8 °C 1000.9 hPa SSW 9.3 km/h 6.4 km/h 90 % 0 mm
01:24 10.3 °C 8.7 °C 1000.6 hPa SSW 7.4 km/h 6.8 km/h 90 % 0 mm
01:29 10.2 °C 8.6 °C 1000.9 hPa North 3.7 km/h 2.9 km/h 90 % 0 mm
01:34 10.1 °C 8.5 °C 1000.9 hPa Calm     90 % 0 mm
01:39 9.9 °C 8.4 °C 1000.6 hPa SSW 3.7 km/h 1.3 km/h 90 % 0 mm
01:44 9.8 °C 8.3 °C 1000.6 hPa SSW 5.6 km/h 3.7 km/h 90 % 0 mm
01:49 9.8 °C 8.2 °C 1000.6 hPa SSW 5.6 km/h 3.4 km/h 90 % 0 mm
01:54 9.7 °C 8.3 °C 1000.9 hPa SSW 5.6 km/h 2.7 km/h 91 % 0 mm
01:59 9.6 °C 8.2 °C 1000.9 hPa SSW 5.6 km/h 2.3 km/h 91 % 0 mm
02:04 9.4 °C 8.1 °C 1000.9 hPa Calm     91 % 0 mm
02:09 9.3 °C 7.9 °C 1000.9 hPa Calm     91 % 0 mm
02:14 9.1 °C 7.7 °C 1000.9 hPa SSW 3.7 km/h   91 % 0 mm
02:19 9 °C 7.6 °C 1000.6 hPa SSW 5.6 km/h 1.9 km/h 91 % 0 mm
02:24 8.9 °C 7.6 °C 1000.6 hPa SSW 5.6 km/h 2.4 km/h 91 % 0 mm
02:29 8.8 °C 7.4 °C 1000.6 hPa North 5.6 km/h 4.8 km/h 91 % 0 mm
02:34 8.7 °C 7.3 °C 1000.6 hPa SSW 1.9 km/h   91 % 0 mm
02:39 8.6 °C 7.4 °C 1000.6 hPa SSW 3.7 km/h 0.2 km/h 92 % 0 mm
02:44 8.5 °C 7.3 °C 1000.6 hPa Calm     92 % 0 mm
02:49 8.4 °C 7.2 °C 1000.6 hPa North 3.7 km/h 0.6 km/h 92 % 0 mm
02:54 8.3 °C 7.1 °C 1000.6 hPa SSW 1.9 km/h 1.1 km/h 92 % 0 mm
02:59 8.2 °C 7 °C 1000.6 hPa Calm     92 % 0 mm
03:04 8.2 °C 6.9 °C 1000.6 hPa Calm     92 % 0 mm
03:09 8.1 °C 6.8 °C 1000.6 hPa SSW 5.6 km/h 1.1 km/h 92 % 0 mm
03:14 8.1 °C 6.8 °C 1000.6 hPa Calm     92 % 0 mm
03:19 8.1 °C 7.1 °C 1000.6 hPa Calm     93 % 0 mm
03:24 8.2 °C 7.1 °C 1000.6 hPa SSW 3.7 km/h 0.8 km/h 93 % 0 mm
03:29 8.2 °C 7.2 °C 1000.6 hPa SSW 1.9 km/h 0.2 km/h 93 % 0 mm
03:34 8.1 °C 6.8 °C 1000.2 hPa Calm     92 % 0 mm
03:39 7.9 °C 6.7 °C 1000.2 hPa Calm     92 % 0 mm
03:44 7.7 °C 6.7 °C 1000.6 hPa North 1.9 km/h 0.3 km/h 93 % 0 mm
03:49 7.6 °C 6.6 °C 1000.2 hPa Calm     93 % 0 mm
03:54 7.6 °C 6.6 °C 1000.2 hPa North 1.9 km/h   93 % 0 mm
03:59 7.4 °C 6.2 °C 1000.2 hPa Calm     92 % 0 mm
04:04 7.3 °C 6.2 °C 1000.2 hPa Calm     93 % 0 mm
04:09 7.2 °C 6.2 °C 1000.2 hPa Calm     93 % 0 mm
04:14 7.2 °C 6.1 °C 999.9 hPa SSW 1.6 km/h 0.5 km/h 93 % 0 mm
04:19 7.1 °C 6.1 °C 999.9 hPa Calm     93 % 0 mm
04:24 7.1 °C 6 °C 999.9 hPa Calm     93 % 0 mm
04:29 6.9 °C 5.9 °C 999.9 hPa Calm     93 % 0 mm
04:34 6.9 °C 5.9 °C 999.9 hPa Calm     93 % 0 mm
04:39 7 °C 6.1 °C 999.9 hPa Calm     94 % 0 mm
04:44 7 °C 6.1 °C 999.9 hPa Calm     94 % 0 mm
04:49 6.9 °C 5.9 °C 999.9 hPa Calm     93 % 0.25 mm
04:54 6.9 °C 6 °C 999.9 hPa Calm     94 % 0.25 mm
04:59 6.9 °C 6 °C 999.5 hPa Calm     94 % 0.25 mm
05:04 6.8 °C 5.7 °C 999.9 hPa Calm     93 % 0.25 mm
05:09 6.7 °C 5.8 °C 999.9 hPa Calm     94 % 0.25 mm
05:14 6.7 °C 5.8 °C 999.9 hPa Calm     94 % 0.25 mm
05:19 6.6 °C 5.7 °C 999.9 hPa Calm     94 % 0.25 mm
05:24 6.6 °C 5.7 °C 999.9 hPa Calm     94 % 0.25 mm
05:29 6.6 °C 5.7 °C 999.9 hPa Calm     94 % 0.25 mm
05:34 6.8 °C 6.1 °C 999.9 hPa SSW 1.9 km/h   95 % 0.25 mm
05:39 6.9 °C 6.2 °C 999.9 hPa North 3.7 km/h 2.1 km/h 95 % 0.25 mm
05:44 7 °C 6.1 °C 999.9 hPa SSW 3.7 km/h 1.9 km/h 94 % 0.25 mm
05:49 7 °C 6.1 °C 1000.2 hPa North 3.7 km/h 0.2 km/h 94 % 0 mm
05:54 7 °C 6.1 °C 999.9 hPa Calm     94 % 0 mm
05:59 7.1 °C 6.2 °C 1000.2 hPa Calm     94 % 0 mm
06:04 7 °C 6.1 °C 1000.2 hPa North 3.7 km/h 3.4 km/h 94 % 0 mm
06:09 7 °C 6.1 °C 1000.2 hPa SSW 1.9 km/h   94 % 0 mm
06:14 7.1 °C 6.3 °C 1000.2 hPa SSW 5.6 km/h 1.3 km/h 95 % 0 mm
06:19 7.1 °C 6.2 °C 1000.2 hPa North 3.7 km/h 0.6 km/h 94 % 0 mm
06:24 7 °C 6.1 °C 1000.2 hPa SSW 3.7 km/h 2.1 km/h 94 % 0 mm
06:29 6.9 °C 6 °C 1000.2 hPa North 3.7 km/h 2.6 km/h 94 % 0 mm
06:34 6.8 °C 6.1 °C 1000.2 hPa North 3.7 km/h 0.5 km/h 95 % 0 mm
06:39 6.9 °C 6.2 °C 1000.2 hPa North 3.7 km/h 2.4 km/h 95 % 0 mm
06:44 7 °C 6.3 °C 1000.2 hPa North 3.7 km/h 0.3 km/h 95 % 0 mm
06:49 7.1 °C 6.4 °C 1000.2 hPa Calm     95 % 0 mm
06:54 7.4 °C 6.8 °C 1000.2 hPa Calm     96 % 0 mm
06:59 7.6 °C 6.9 °C 1000.2 hPa Calm     95 % 0 mm
07:04 7.7 °C 6.9 °C 1000.6 hPa SSW 3.7 km/h   95 % 0 mm
07:09 7.9 °C 7.1 °C 1000.6 hPa SSW 1.6 km/h 0.8 km/h 95 % 0 mm
07:14 7.9 °C 7.2 °C 1000.6 hPa Calm     95 % 0 mm
07:19 8.1 °C 7.3 °C 1000.6 hPa Calm     95 % 0 mm
07:24 8.2 °C 7.4 °C 1000.6 hPa SSW 5.6 km/h 1.9 km/h 95 % 0 mm
07:29 8.4 °C 7.6 °C 1000.2 hPa SSW 3.7 km/h 1 km/h 95 % 0 mm
07:34 8.6 °C 7.9 °C 1000.6 hPa SSW 5.6 km/h 4.3 km/h 96 % 0 mm
07:39 8.6 °C 7.8 °C 1000.6 hPa SSW 3.7 km/h 2.4 km/h 95 % 0 mm
07:44 8.8 °C 8.2 °C 1000.6 hPa SSW 5.6 km/h 2.9 km/h 96 % 0 mm
07:49 8.8 °C 8 °C 1000.6 hPa SSW 5.6 km/h 5 km/h 95 % 0 mm
07:54 8.9 °C 8.1 °C 1000.6 hPa SSW 6.4 km/h 3.4 km/h 95 % 0 mm
07:59 9.1 °C 8.3 °C 1000.6 hPa SSW 3.7 km/h 0.8 km/h 95 % 0 mm
08:04 9.3 °C 8.5 °C 1000.6 hPa SSW 9.3 km/h 7.1 km/h 95 % 0 mm
08:09 9.4 °C 8.4 °C 1000.6 hPa SSW 6.4 km/h 4.7 km/h 94 % 0 mm
08:14 9.7 °C 8.7 °C 1000.6 hPa SSW 9.3 km/h 4.3 km/h 94 % 0 mm
08:18 9.9 °C 8.9 °C 1000.9 hPa SSW 9.7 km/h 6.1 km/h 94 % 0 mm
08:34 10.9 °C 9.2 °C 1000.9 hPa WNW 7.4 km/h 7.1 km/h 89 % 0 mm
08:39 11.1 °C 8.8 °C 1000.9 hPa WNW 13 km/h 9.3 km/h 86 % 0 mm
08:44 11.4 °C 8.9 °C 1000.6 hPa WNW 11.1 km/h 11.1 km/h 85 % 0 mm
08:49 11.7 °C 8.7 °C 1000.6 hPa WNW 9.3 km/h 6.6 km/h 82 % 0 mm
08:54 12 °C 8.7 °C 1000.6 hPa WNW 9.3 km/h 7.7 km/h 80 % 0 mm
08:59 12.2 °C 8.5 °C 1000.6 hPa WNW 13 km/h 10.1 km/h 78 % 0 mm
09:04 12.4 °C 8.3 °C 1000.6 hPa WNW 9.3 km/h 6 km/h 76 % 0 mm
09:09 12.5 °C 7.6 °C 1000.9 hPa North 7.4 km/h 4.3 km/h 72 % 0 mm
09:14 12.8 °C 7.7 °C 1000.9 hPa WNW 11.3 km/h 8.5 km/h 71 % 0 mm
09:19 13.1 °C 7.6 °C 1000.6 hPa NNW 16.7 km/h 9.5 km/h 69 % 0 mm
09:24 13.3 °C 7.7 °C 1000.6 hPa NNW 13 km/h 7.1 km/h 69 % 0 mm
09:29 13.4 °C 8.2 °C 1000.6 hPa North 9.3 km/h 7.1 km/h 71 % 0 mm
09:34 13.4 °C 8 °C 1000.6 hPa North 14.8 km/h 10 km/h 70 % 0 mm
09:39 13.8 °C 8 °C 1000.6 hPa North 16.7 km/h 8.2 km/h 68 % 0 mm
09:44 13.9 °C 7.8 °C 1000.6 hPa NW 20.4 km/h 16.6 km/h 67 % 0 mm
09:49 13.8 °C 7.8 °C 1000.6 hPa NW 8 km/h 5.3 km/h 67 % 0 mm
09:54 14.1 °C 8.1 °C 1000.6 hPa NNW 16.7 km/h 4.7 km/h 67 % 0 mm
09:59 14.3 °C 8.1 °C 1000.6 hPa North 16.7 km/h 10.1 km/h 66 % 0 mm
10:04 14.4 °C 7.7 °C 1000.2 hPa North 17.7 km/h 15.6 km/h 64 % 0 mm
10:09 14.8 °C 7.8 °C 1000.2 hPa North 18.5 km/h 11.9 km/h 63 % 0 mm
10:14 14.7 °C 7.9 °C 1000.2 hPa North 14.8 km/h 10.6 km/h 64 % 0 mm
10:19 14.9 °C 7.7 °C 1000.2 hPa North 24.1 km/h 19.2 km/h 62 % 0 mm
10:24 15.1 °C 8.1 °C 1000.2 hPa WNW 14.8 km/h 9.3 km/h 63 % 0 mm
10:29 15.4 °C 8.2 °C 999.9 hPa NW 13 km/h 9.2 km/h 62 % 0 mm
10:34 14.7 °C 6.6 °C 999.9 hPa WNW 25.9 km/h 17.2 km/h 58 % 0 mm
10:39 14.2 °C 6.6 °C 999.9 hPa NW 16.7 km/h 7.7 km/h 60 % 0 mm
10:44 14.4 °C 6.5 °C 999.9 hPa WNW 14.8 km/h 14.5 km/h 59 % 0 mm
10:49 14.6 °C 5.9 °C 999.9 hPa NNW 16.7 km/h 14.5 km/h 56 % 0 mm
10:54 14.5 °C 6.3 °C 999.5 hPa NW 17.7 km/h 10.1 km/h 58 % 0 mm
10:59 14.9 °C 6.4 °C 999.5 hPa North 19.3 km/h 15.9 km/h 57 % 0 mm
11:04 15.1 °C 6.3 °C 999.5 hPa WNW 25.9 km/h 10.9 km/h 56 % 0 mm
11:09 15.4 °C 6.7 °C 999.5 hPa NW 16.7 km/h 10.3 km/h 56 % 0 mm
11:14 15.8 °C 6.2 °C 999.5 hPa WNW 16.7 km/h 16.4 km/h 53 % 0 mm
11:19 15.9 °C 5.8 °C 999.2 hPa NW 27.8 km/h 16.1 km/h 51 % 0 mm
11:24 16.1 °C 5.6 °C 999.2 hPa NNW 24.1 km/h 18.7 km/h 50 % 0 mm
11:29 16.2 °C 6.3 °C 998.9 hPa North 18.5 km/h 12.2 km/h 52 % 0 mm
11:34 16.4 °C 6.3 °C 998.9 hPa NNW 18.5 km/h 14.5 km/h 51 % 0 mm
11:39 16.1 °C 5.9 °C 998.9 hPa NW 18.5 km/h 11.1 km/h 51 % 0 mm
11:44 16.2 °C 6.1 °C 998.9 hPa NW 17.7 km/h 16.3 km/h 51 % 0 mm
11:49 16.7 °C 5.9 °C 998.9 hPa NW 14.8 km/h 8.7 km/h 49 % 0 mm
11:54 16.8 °C 6 °C 998.9 hPa NW 19.3 km/h 16.9 km/h 49 % 0 mm
11:59 17.1 °C 4.4 °C 998.9 hPa NW 33.3 km/h 13.8 km/h 43 % 0 mm
12:04 17.3 °C 2.9 °C 998.9 hPa North 31.5 km/h 13 km/h 38 % 0 mm
12:09 17.5 °C 3.4 °C 998.9 hPa NNW 24.1 km/h 18.2 km/h 39 % 0 mm
12:14 17.4 °C 3.7 °C 998.9 hPa NNW 25.9 km/h 17.4 km/h 40 % 0 mm
12:19 17.2 °C 4.1 °C 998.9 hPa North 25.9 km/h 17.9 km/h 42 % 0 mm
12:24 17.5 °C 4.1 °C 998.5 hPa NNW 29.6 km/h 16.3 km/h 41 % 0 mm
12:29 17.2 °C 4.4 °C 998.5 hPa NW 24.1 km/h 17.2 km/h 43 % 0 mm
12:34 17.3 °C 4.9 °C 998.5 hPa NW 30.6 km/h 16.4 km/h 44 % 0 mm
12:39 16.8 °C 4.5 °C 998.5 hPa North 33.3 km/h 18.8 km/h 44 % 0 mm
12:44 16.7 °C 5.1 °C 998.5 hPa WNW 22.5 km/h 15.6 km/h 46 % 0 mm
12:49 16.7 °C 5.1 °C 998.2 hPa North 16.7 km/h 12.2 km/h 46 % 0 mm
12:54 16.9 °C 4.9 °C 998.2 hPa North 14.8 km/h 12.4 km/h 45 % 0 mm
12:59 17.6 °C 5.5 °C 997.9 hPa NW 22.2 km/h 16.3 km/h 45 % 0 mm
13:04 17.2 °C 5.2 °C 998.2 hPa NW 18.5 km/h 14 km/h 45 % 0 mm
13:09 16.7 °C 6.2 °C 998.2 hPa North 24.1 km/h 18.5 km/h 50 % 0 mm
13:14 15.6 °C 7.9 °C 997.9 hPa NNW 11.3 km/h 7.6 km/h 60 % 0.25 mm
13:19 15.4 °C 8.2 °C 997.9 hPa North 20.4 km/h 16.6 km/h 62 % 0.25 mm
13:24 15.7 °C 7.9 °C 997.9 hPa NNW 18.5 km/h 11.9 km/h 60 % 0.25 mm
13:29 15.7 °C 6.9 °C 997.9 hPa NW 16.7 km/h 14.8 km/h 56 % 0.25 mm
13:34 15.7 °C 7.2 °C 997.5 hPa NW 13 km/h 9.5 km/h 57 % 0.25 mm
13:39 15.7 °C 7.7 °C 997.5 hPa NNW 16.1 km/h 12.6 km/h 59 % 0.25 mm
13:44 15.5 °C 7.5 °C 997.5 hPa North 30.6 km/h 12.7 km/h 59 % 0.25 mm
13:49 15.6 °C 7.6 °C 997.5 hPa North 27.8 km/h 17.5 km/h 59 % 0.25 mm
13:54 15.7 °C 7.5 °C 997.5 hPa NNW 18.5 km/h 10.9 km/h 58 % 0.25 mm
13:59 16.3 °C 7.7 °C 997.2 hPa North 18.5 km/h 7.1 km/h 57 % 0.25 mm
14:04 17.1 °C 7.4 °C 997.2 hPa NNW 14.8 km/h 10.8 km/h 53 % 0.25 mm
14:09 17.4 °C 6.6 °C 996.8 hPa North 31.5 km/h 19.2 km/h 49 % 0.25 mm
14:14 17.3 °C 6.8 °C 996.5 hPa North 14.8 km/h 11.4 km/h 50 % 0 mm
14:19 17.6 °C 7 °C 996.5 hPa North 25.9 km/h 13.4 km/h 50 % 0 mm
14:24 18.1 °C 6.6 °C 996.2 hPa NNW 31.5 km/h 17.5 km/h 47 % 0 mm
14:29 18.3 °C 6.4 °C 996.2 hPa North 25.9 km/h 20.4 km/h 46 % 0 mm
14:34 17.8 °C 6 °C 996.2 hPa NNW 25.9 km/h 17.1 km/h 46 % 0 mm
14:39 17.8 °C 5.7 °C 995.8 hPa North 37 km/h 18.5 km/h 45 % 0 mm
14:44 18.6 °C 6.8 °C 995.5 hPa North 25.9 km/h 10.5 km/h 46 % 0 mm
14:49 19.3 °C 6.7 °C 995.5 hPa North 25.9 km/h 8 km/h 44 % 0 mm
14:54 19 °C 5.8 °C 995.5 hPa NNE 25.7 km/h 20.9 km/h 42 % 0 mm
14:59 18.2 °C 5.4 °C 995.5 hPa NNE 29.6 km/h 18.3 km/h 43 % 0 mm
15:04 17.7 °C 6.3 °C 995.5 hPa NE 30.6 km/h 15 km/h 47 % 0 mm
15:09 17.4 °C 5.7 °C 995.5 hPa North 24.1 km/h 17.5 km/h 46 % 0 mm
15:14 17.7 °C 5.9 °C 995.1 hPa NW 16.7 km/h 16.4 km/h 46 % 0 mm
15:19 17.5 °C 6.3 °C 995.1 hPa WNW 27.8 km/h 19.3 km/h 48 % 0 mm
15:24 17.3 °C 6.2 °C 995.1 hPa NNW 18.5 km/h 12.1 km/h 48 % 0 mm
15:29 17.2 °C 5.8 °C 994.8 hPa North 20.4 km/h 12.1 km/h 47 % 0 mm
15:34 17.1 °C 6 °C 994.8 hPa NW 13 km/h 11.6 km/h 48 % 0 mm
15:39 17 °C 6.2 °C 994.8 hPa North 14.5 km/h 13 km/h 49 % 0 mm
15:44 16.9 °C 6.4 °C 994.8 hPa North 16.7 km/h 8 km/h 50 % 0 mm
15:49 16.8 °C 6.6 °C 994.5 hPa North 18.5 km/h 8.7 km/h 51 % 0 mm
15:54 16.9 °C 6.7 °C 994.5 hPa North 25.9 km/h 19.5 km/h 51 % 0 mm
15:59 16.9 °C 6.2 °C 994.5 hPa North 18.5 km/h 16.4 km/h 49 % 0 mm
16:04 16.8 °C 6.3 °C 994.5 hPa North 18.5 km/h 10.5 km/h 50 % 0 mm
16:09 16.7 °C 6.2 °C 994.5 hPa NNW 18.5 km/h 9.2 km/h 50 % 0 mm
16:14 16.7 °C 6.8 °C 994.5 hPa NW 13 km/h 10.6 km/h 52 % 0 mm
16:19 16.6 °C 6.9 °C 994.5 hPa North 18.5 km/h 15.8 km/h 53 % 0 mm
16:24 16.4 °C 7.3 °C 994.5 hPa North 13 km/h 11.6 km/h 55 % 0 mm
16:29 16.2 °C 7.6 °C 994.1 hPa NNW 24.1 km/h 9.5 km/h 57 % 0 mm
16:34 16.1 °C 8.1 °C 994.5 hPa North 9.3 km/h 5.1 km/h 59 % 0 mm
16:39 16.3 °C 8.2 °C 994.5 hPa North 14.5 km/h 12.1 km/h 59 % 0 mm
16:44 16.5 °C 7.7 °C 994.5 hPa WNW 22.2 km/h 19.3 km/h 56 % 0 mm
16:49 16.5 °C 7.4 °C 994.5 hPa NNW 18.5 km/h 16.9 km/h 55 % 0 mm
16:54 16.4 °C 7.6 °C 994.5 hPa NNW 20.4 km/h 12.6 km/h 56 % 0 mm
16:59 16.4 °C 7.4 °C 994.5 hPa NNW 20.9 km/h 16.9 km/h 55 % 0 mm
17:04 16.3 °C 7.6 °C 994.8 hPa NW 31.5 km/h 29.8 km/h 56 % 0 mm
17:09 14.7 °C 7.4 °C 995.1 hPa WNW 46.3 km/h 36.2 km/h 62 % 0 mm
17:14 13.8 °C 7.9 °C 995.1 hPa NW 27.4 km/h 20.9 km/h 68 % 0 mm
17:19 13.4 °C 8.1 °C 995.1 hPa WNW 40.7 km/h 25.1 km/h 70 % 0 mm
17:24 13.1 °C 8.1 °C 995.5 hPa North 33.3 km/h 20.3 km/h 72 % 0 mm
17:29 12.6 °C 7.2 °C 995.5 hPa WNW 41.8 km/h 30.1 km/h 70 % 0 mm
17:34 11.7 °C 6.2 °C 996.2 hPa WNW 46.3 km/h 31.1 km/h 69 % 0 mm
17:39 11.3 °C 6.2 °C 996.2 hPa WNW 38.9 km/h 26.6 km/h 71 % 0 mm
17:44 11.1 °C 6.4 °C 996.2 hPa WNW 31.5 km/h 15.1 km/h 73 % 0 mm
17:49 10.9 °C 6.2 °C 996.2 hPa WNW 24.1 km/h 15.9 km/h 73 % 0 mm
17:54 10.7 °C 6.2 °C 996.2 hPa WNW 27.8 km/h 22.5 km/h 74 % 0 mm
17:59 10.3 °C 6.2 °C 996.2 hPa WNW 25.9 km/h 16.7 km/h 76 % 0 mm
18:04 10.1 °C 6.4 °C 995.8 hPa WNW 22.2 km/h 11.6 km/h 78 % 0 mm
18:09 9.9 °C 6.4 °C 996.2 hPa West 22.2 km/h 14.5 km/h 79 % 0.25 mm
18:14 9.9 °C 6.7 °C 996.2 hPa North 13 km/h 8 km/h 80 % 0.25 mm
18:19 9.9 °C 6.6 °C 996.5 hPa NW 18.5 km/h 13 km/h 80 % 0.25 mm
18:24 9.8 °C 6.7 °C 996.5 hPa North 18.5 km/h 13.2 km/h 81 % 0.51 mm
18:29 9.6 °C 6.7 °C 996.5 hPa NW 14.5 km/h 11.9 km/h 82 % 0.51 mm
18:34 9.4 °C 6.7 °C 996.5 hPa NW 22.2 km/h 8 km/h 83 % 0.76 mm
18:39 9.4 °C 7 °C 996.5 hPa NW 11.3 km/h 6 km/h 85 % 0.76 mm
18:44 9.2 °C 6.7 °C 996.5 hPa North 20.4 km/h 6.8 km/h 84 % 1.02 mm
18:49 9.2 °C 6.8 °C 995.8 hPa North 5.6 km/h 0.2 km/h 85 % 1.27 mm
18:54 9.1 °C 6.6 °C 996.2 hPa North 14.8 km/h 7.6 km/h 84 % 1.27 mm
18:59 9.1 °C 6.6 °C 996.2 hPa North 7.4 km/h 4.2 km/h 84 % 1.27 mm
19:04 9.1 °C 6.7 °C 996.2 hPa North 6.4 km/h 6.8 km/h 85 % 1.27 mm
19:09 9.1 °C 6.6 °C 996.2 hPa North 8 km/h 6.9 km/h 84 % 1.02 mm
19:14 9.2 °C 6.8 °C 996.5 hPa North 12.9 km/h 8.5 km/h 85 % 1.02 mm
19:19 9.4 °C 6.8 °C 996.5 hPa North 14.8 km/h 6.9 km/h 84 % 1.02 mm
19:24 9.6 °C 7.2 °C 996.5 hPa North 9.3 km/h 8.9 km/h 85 % 0.76 mm
19:29 9.7 °C 7.2 °C 996.5 hPa North 16.1 km/h 12.6 km/h 84 % 0.51 mm
19:34 9.7 °C 6.9 °C 996.8 hPa NNE 14.8 km/h 10.9 km/h 83 % 0.51 mm
19:39 9.6 °C 6.9 °C 996.5 hPa NNE 9.3 km/h 5.3 km/h 83 % 0.51 mm
19:44 9.6 °C 6.9 °C 996.5 hPa NNE 11.3 km/h 7.9 km/h 83 % 0.25 mm
19:49 9.6 °C 6.9 °C 996.2 hPa NNE 7.4 km/h 5.6 km/h 83 % 0 mm
19:54 9.7 °C 6.9 °C 996.2 hPa NNE 5.6 km/h 3.1 km/h 83 % 0 mm
19:59 9.6 °C 7.1 °C 996.2 hPa NNE 5.6 km/h 5.5 km/h 84 % 0 mm
20:04 9.4 °C 6.7 °C 995.8 hPa NNE 8 km/h 3.9 km/h 83 % 0 mm
20:09 9.3 °C 6.7 °C 995.8 hPa NNE 11.1 km/h 3.7 km/h 84 % 0 mm
20:14 9.2 °C 6.6 °C 995.8 hPa NNE 9.3 km/h 8.7 km/h 84 % 0 mm
20:19 9.1 °C 6.7 °C 995.8 hPa NNE 11.1 km/h 5.1 km/h 85 % 0 mm
20:24 8.9 °C 6.6 °C 995.8 hPa NNE 9.3 km/h 7.1 km/h 85 % 0 mm
20:29 8.9 °C 6.7 °C 995.8 hPa NNE 5.6 km/h 2.9 km/h 86 % 0 mm
20:34 8.8 °C 6.6 °C 996.2 hPa NNE 5.6 km/h 5.1 km/h 86 % 0 mm
20:39 8.8 °C 6.6 °C 996.2 hPa NNE 7.4 km/h 3.5 km/h 86 % 0 mm
20:44 8.7 °C 6.6 °C 996.2 hPa NNE 6.4 km/h 5.6 km/h 87 % 0 mm
20:49 8.6 °C 6.5 °C 996.2 hPa NNE 6.4 km/h 3.9 km/h 87 % 0 mm
20:54 8.5 °C 6.4 °C 995.8 hPa NNE 5.6 km/h 4.2 km/h 87 % 0 mm
20:59 8.3 °C 6.3 °C 996.2 hPa NNE 8 km/h 4.2 km/h 87 % 0 mm
21:04 8.3 °C 6.4 °C 995.8 hPa NNE 7.4 km/h 5.8 km/h 88 % 0 mm
21:09 8.2 °C 6.3 °C 995.8 hPa NNE 3.7 km/h 2.6 km/h 88 % 0 mm
21:14 8.1 °C 6.2 °C 995.8 hPa NNE 3.7 km/h   88 % 0 mm
21:19 8 °C 6.1 °C 995.8 hPa NNE 1.9 km/h   88 % 0 mm
21:24 7.9 °C 6 °C 995.8 hPa Calm     88 % 0 mm
21:29 7.8 °C 6.1 °C 995.8 hPa NNE 3.7 km/h 2.6 km/h 89 % 0 mm
21:34 7.8 °C 6.1 °C 995.8 hPa Calm     89 % 0 mm
21:39 7.7 °C 5.9 °C 995.8 hPa NNE 1.9 km/h   89 % 0 mm
21:44 7.6 °C 5.9 °C 996.2 hPa Calm     89 % 0 mm
21:49 7.6 °C 5.8 °C 996.2 hPa Calm     89 % 0 mm
21:54 7.5 °C 5.9 °C 995.8 hPa NNE 5.6 km/h 1.9 km/h 90 % 0 mm
21:59 7.5 °C 5.9 °C 996.2 hPa NNE 4.8 km/h 4.3 km/h 90 % 0 mm
22:04 7.5 °C 5.9 °C 996.2 hPa NNE 3.2 km/h 2.4 km/h 90 % 0 mm
22:09 7.4 °C 5.8 °C 996.2 hPa NNE 3.7 km/h 1 km/h 90 % 0 mm
22:14 7.3 °C 5.7 °C 996.2 hPa NNE 1.9 km/h   90 % 0 mm
22:19 7.3 °C 5.7 °C 996.2 hPa NNE 3.7 km/h 0.3 km/h 90 % 0 mm
22:24 7.2 °C 5.7 °C 996.2 hPa NNE 3.7 km/h 1.1 km/h 90 % 0 mm
22:29 7.1 °C 5.6 °C 996.2 hPa NNE 1.9 km/h 0.6 km/h 90 % 0 mm
22:34 7.2 °C 5.8 °C 995.8 hPa NNE 4.8 km/h 1 km/h 91 % 0 mm
22:39 7.2 °C 5.8 °C 995.8 hPa NNE 5.6 km/h 3.2 km/h 91 % 0 mm
22:44 7.2 °C 5.8 °C 995.8 hPa NNE 5.6 km/h 5.8 km/h 91 % 0 mm
22:49 7.2 °C 5.8 °C 995.8 hPa NNE 3.7 km/h 0.2 km/h 91 % 0 mm
22:54 7.2 °C 5.8 °C 995.8 hPa NNE 3.7 km/h 0.8 km/h 91 % 0 mm
22:59 7.2 °C 5.8 °C 995.8 hPa NNE 5.6 km/h 3.5 km/h 91 % 0 mm
23:04 7.2 °C 5.8 °C 995.5 hPa NNE 3.7 km/h 1 km/h 91 % 0 mm
23:09 7.2 °C 5.9 °C 995.5 hPa NNE 6.4 km/h 3.7 km/h 92 % 0 mm
23:14 7.3 °C 6.1 °C 995.5 hPa NNE 11.1 km/h 7.1 km/h 92 % 0 mm
23:19 7.4 °C 6 °C 995.5 hPa NNE 7.4 km/h 6.4 km/h 91 % 0 mm
23:24 7.4 °C 6 °C 995.5 hPa NNE 7.4 km/h 3.5 km/h 91 % 0 mm
23:29 7.4 °C 6 °C 995.1 hPa NNE 5.6 km/h 1.1 km/h 91 % 0 mm
23:34 7.4 °C 6 °C 995.1 hPa NNE 5.6 km/h 3.5 km/h 91 % 0 mm
23:39 7.4 °C 6 °C 995.1 hPa NNE 9.7 km/h 6 km/h 91 % 0 mm
23:44 7.4 °C 6 °C 995.1 hPa NNE 7.4 km/h 6.8 km/h 91 % 0 mm
23:49 7.4 °C 5.9 °C 995.1 hPa NNE 7.4 km/h 5.6 km/h 90 % 0 mm
23:54 7.4 °C 5.8 °C 995.1 hPa North 18.5 km/h 10.3 km/h 90 % 0 mm
23:59 7.5 °C 5.7 °C 995.1 hPa North 9.3 km/h 9.8 km/h 88 % 0 mm
Ararat Weather
Compliments of Weather Underground - 2.25 mb
Click here to send mail.


ABOUT

Live weather data from Ararat, Victoria, Australia, 3377
Data uploaded from Cumulus every 5 minutes to Weather Underground.
This site then downloads the raw data for formatting and display.
Metric and imperial data can be displayed. Graphs and historical data available.
Includes Sun and Moon times and rain image live from BOM.

Check out Ararat Weather on Facebook, Twitter and Google +

Help support ongoing costs by checking out the ads





Follow @AraratWeather